createdAt,value
2022-09-15T00:00:14.135Z,13.67
2022-09-15T00:03:16.155Z,13.67
2022-09-15T00:05:58.100Z,13.67
2022-09-15T00:08:40.609Z,13.67
2022-09-15T00:11:25.446Z,13.68
2022-09-15T00:14:09.218Z,13.68
2022-09-15T00:16:51.050Z,13.68
2022-09-15T00:19:32.904Z,13.68
2022-09-15T00:22:14.723Z,13.67
2022-09-15T00:24:56.594Z,13.66
2022-09-15T00:27:38.490Z,13.65
2022-09-15T00:30:20.281Z,13.65
2022-09-15T00:33:02.074Z,13.65
2022-09-15T00:35:46.542Z,13.65
2022-09-15T00:38:28.425Z,13.64
2022-09-15T00:41:12.230Z,13.62
2022-09-15T00:44:00.310Z,13.62
2022-09-15T00:46:58.663Z,13.61
2022-09-15T00:49:50.670Z,13.60
2022-09-15T00:52:38.516Z,13.60
2022-09-15T00:55:25.982Z,13.58
2022-09-15T00:58:12.075Z,13.55
2022-09-15T01:00:58.445Z,13.54
2022-09-15T01:03:40.783Z,13.52
2022-09-15T01:06:35.069Z,13.51
2022-09-15T01:09:22.801Z,13.50
2022-09-15T01:12:05.112Z,13.48
2022-09-15T01:14:46.900Z,13.47
2022-09-15T01:17:34.641Z,13.46
2022-09-15T01:20:57.591Z,13.45
2022-09-15T01:24:19.099Z,13.44
2022-09-15T01:27:42.213Z,13.43
2022-09-15T01:30:25.577Z,13.41
2022-09-15T01:33:26.141Z,13.39
2022-09-15T01:36:18.379Z,13.38
2022-09-15T01:39:09.536Z,13.35
2022-09-15T01:42:02.036Z,13.34
2022-09-15T01:44:49.665Z,13.32
2022-09-15T01:47:34.506Z,13.30
2022-09-15T01:50:21.035Z,13.29
2022-09-15T01:53:08.940Z,13.26
2022-09-15T01:56:07.664Z,13.20
2022-09-15T01:58:51.368Z,13.14
2022-09-15T02:01:44.871Z,13.13
2022-09-15T02:04:36.913Z,13.11
2022-09-15T02:07:45.322Z,13.10
2022-09-15T02:10:38.273Z,13.07
2022-09-15T02:13:41.161Z,13.06
2022-09-15T02:16:25.968Z,13.04
2022-09-15T02:19:14.770Z,13.03
2022-09-15T02:22:08.253Z,13.03
2022-09-15T02:25:14.126Z,13.02
2022-09-15T02:28:01.846Z,13.01
2022-09-15T02:30:46.808Z,12.98
2022-09-15T02:33:35.747Z,12.96
2022-09-15T02:36:20.672Z,12.95
2022-09-15T02:39:08.469Z,12.93
2022-09-15T02:41:50.570Z,12.91
2022-09-15T02:44:32.772Z,12.89
2022-09-15T02:47:14.668Z,12.88
2022-09-15T02:49:57.213Z,12.86
2022-09-15T02:52:39.200Z,12.83
2022-09-15T02:55:21.583Z,12.82
2022-09-15T02:58:04.197Z,12.82
2022-09-15T03:00:46.038Z,12.81
2022-09-15T03:03:27.886Z,12.80
2022-09-15T03:06:21.255Z,12.81
2022-09-15T03:09:07.551Z,12.80
2022-09-15T03:11:49.345Z,12.81
2022-09-15T03:14:32.877Z,12.81
2022-09-15T03:17:14.678Z,12.79
2022-09-15T03:19:56.463Z,12.78
2022-09-15T03:22:38.666Z,12.78
2022-09-15T03:25:21.073Z,12.77
2022-09-15T03:28:03.174Z,12.73
2022-09-15T03:30:45.725Z,12.69
2022-09-15T03:33:27.889Z,12.64
2022-09-15T03:36:09.888Z,12.60
2022-09-15T03:38:51.873Z,12.54
2022-09-15T03:41:33.780Z,12.47
2022-09-15T03:44:15.599Z,12.40
2022-09-15T03:46:58.492Z,12.32
2022-09-15T03:49:40.389Z,12.26
2022-09-15T03:52:22.181Z,12.21
2022-09-15T03:55:04.384Z,12.19
2022-09-15T03:57:46.177Z,12.17
2022-09-15T04:00:28.171Z,12.15
2022-09-15T04:03:10.377Z,12.14
2022-09-15T04:05:52.171Z,12.16
2022-09-15T04:08:33.965Z,12.16
2022-09-15T04:11:16.682Z,12.17
2022-09-15T04:13:59.088Z,12.18
2022-09-15T04:16:40.973Z,12.22
2022-09-15T04:19:22.879Z,12.25
2022-09-15T04:22:04.672Z,12.28
2022-09-15T04:24:49.641Z,12.31
2022-09-15T04:27:34.607Z,12.35
2022-09-15T04:30:16.400Z,12.37
2022-09-15T04:32:58.194Z,12.40
2022-09-15T04:35:39.987Z,12.41
2022-09-15T04:38:21.781Z,12.42
2022-09-15T04:41:04.904Z,12.43
2022-09-15T04:43:47.620Z,12.45
2022-09-15T04:46:29.578Z,12.45
2022-09-15T04:49:11.422Z,12.46
2022-09-15T04:51:53.921Z,12.47
2022-09-15T04:54:36.022Z,12.48
2022-09-15T04:57:18.327Z,12.49
2022-09-15T05:00:00.325Z,12.50
2022-09-15T05:02:42.221Z,12.50
2022-09-15T05:05:24.165Z,12.51
2022-09-15T05:08:06.728Z,12.51
2022-09-15T05:10:48.514Z,12.53
2022-09-15T05:13:30.522Z,12.55
2022-09-15T05:16:23.963Z,12.58
2022-09-15T05:19:05.863Z,12.67
2022-09-15T05:21:47.676Z,12.79
2022-09-15T05:24:29.469Z,12.86
2022-09-15T05:27:11.263Z,12.90
2022-09-15T05:30:09.724Z,12.92
2022-09-15T05:32:55.227Z,12.96
2022-09-15T05:35:37.020Z,12.99
2022-09-15T05:38:19.856Z,13.02
2022-09-15T05:41:07.554Z,13.06
2022-09-15T05:43:51.003Z,13.11
2022-09-15T05:46:32.858Z,13.15
2022-09-15T05:49:15.719Z,13.21
2022-09-15T05:51:57.508Z,13.25
2022-09-15T05:54:39.405Z,13.30
2022-09-15T05:57:21.397Z,13.34
2022-09-15T06:00:04.879Z,13.39
2022-09-15T06:02:53.870Z,13.44
2022-09-15T06:05:35.896Z,13.53
2022-09-15T06:08:17.667Z,13.64
2022-09-15T06:11:07.367Z,13.76
2022-09-15T06:13:49.675Z,13.86
2022-09-15T06:16:33.957Z,13.90
2022-09-15T06:19:15.819Z,13.94
2022-09-15T06:21:57.613Z,13.98
2022-09-15T06:24:39.405Z,14.01
2022-09-15T06:27:21.199Z,14.04
2022-09-15T06:30:04.017Z,14.08
2022-09-15T06:32:48.299Z,14.11
2022-09-15T06:35:30.264Z,14.15
2022-09-15T06:38:12.160Z,14.19
2022-09-15T06:41:00.713Z,14.24
2022-09-15T06:43:43.017Z,14.31
2022-09-15T06:46:26.856Z,14.36
2022-09-15T06:49:08.856Z,14.43
2022-09-15T06:51:50.650Z,14.50
2022-09-15T06:54:32.443Z,14.58
2022-09-15T06:57:14.653Z,14.67
2022-09-15T06:59:56.644Z,14.83
2022-09-15T07:02:38.718Z,14.95
2022-09-15T07:05:20.640Z,15.08
2022-09-15T07:08:02.950Z,15.35
2022-09-15T07:10:48.120Z,15.64
2022-09-15T07:13:30.526Z,15.92
2022-09-15T07:16:13.319Z,16.24
2022-09-15T07:18:57.295Z,16.55
2022-09-15T07:22:14.113Z,16.85
2022-09-15T07:24:55.896Z,17.03
2022-09-15T07:27:37.693Z,17.24
2022-09-15T07:30:19.481Z,17.40
2022-09-15T07:33:01.376Z,17.53
2022-09-15T07:35:44.603Z,17.70
2022-09-15T07:38:26.499Z,17.93
2022-09-15T07:41:12.595Z,18.17
2022-09-15T07:43:56.639Z,18.37
2022-09-15T07:46:39.047Z,18.50
2022-09-15T07:49:20.844Z,18.66
2022-09-15T07:52:02.842Z,18.85
2022-09-15T07:54:44.631Z,18.98
2022-09-15T07:57:27.449Z,19.13
2022-09-15T08:00:10.061Z,19.30
2022-09-15T08:02:56.998Z,19.46
2022-09-15T08:05:42.316Z,19.61
2022-09-15T08:08:27.529Z,19.70
2022-09-15T08:11:16.352Z,19.82
2022-09-15T08:14:02.294Z,19.95
2022-09-15T08:16:44.918Z,20.06
2022-09-15T08:19:30.643Z,20.16
2022-09-15T08:22:12.875Z,20.28
2022-09-15T08:24:54.668Z,20.43
2022-09-15T08:27:36.461Z,20.49
2022-09-15T08:30:18.972Z,20.60
2022-09-15T08:33:00.870Z,20.81
2022-09-15T08:35:42.661Z,20.93
2022-09-15T08:38:24.454Z,20.99
2022-09-15T08:41:12.089Z,20.95
2022-09-15T08:44:12.411Z,20.82
2022-09-15T08:46:59.735Z,20.83
2022-09-15T08:49:55.967Z,20.80
2022-09-15T08:52:50.868Z,20.86
2022-09-15T08:55:52.936Z,20.83
2022-09-15T08:58:37.840Z,20.86
2022-09-15T09:01:43.003Z,21.01
2022-09-15T09:04:40.655Z,20.95
2022-09-15T09:07:38.301Z,20.96
2022-09-15T09:10:31.944Z,20.95
2022-09-15T09:13:38.725Z,20.82
2022-09-15T09:16:38.955Z,20.74
2022-09-15T09:19:28.935Z,20.57
2022-09-15T09:22:18.439Z,20.38
2022-09-15T09:25:11.557Z,20.20
2022-09-15T09:27:58.596Z,20.25
2022-09-15T09:30:40.855Z,20.40
2022-09-15T09:33:25.548Z,20.46
2022-09-15T09:36:12.052Z,20.66
2022-09-15T09:38:55.996Z,20.90
2022-09-15T09:41:39.122Z,21.13
2022-09-15T09:44:21.222Z,21.34
2022-09-15T09:47:04.244Z,21.53
2022-09-15T09:49:49.306Z,21.75
2022-09-15T09:52:38.722Z,21.91
2022-09-15T09:55:23.928Z,21.87
2022-09-15T09:58:15.795Z,21.98
2022-09-15T10:01:10.711Z,22.04
2022-09-15T10:04:17.168Z,21.82
2022-09-15T10:06:59.671Z,21.45
2022-09-15T10:09:50.638Z,21.23
2022-09-15T10:12:38.721Z,21.06
2022-09-15T10:15:26.453Z,20.87
2022-09-15T10:18:26.772Z,20.77
2022-09-15T10:21:10.012Z,20.64
2022-09-15T10:23:52.212Z,20.51
2022-09-15T10:26:34.930Z,20.40
2022-09-15T10:29:19.072Z,20.44
2022-09-15T10:32:16.878Z,20.61
2022-09-15T10:35:18.910Z,20.68
2022-09-15T10:38:11.865Z,20.62
2022-09-15T10:41:14.242Z,20.53
2022-09-15T10:44:54.197Z,20.56
2022-09-15T10:47:52.784Z,20.72
2022-09-15T10:51:09.502Z,20.80
2022-09-15T10:54:45.106Z,20.87
2022-09-15T10:57:35.524Z,20.85
2022-09-15T11:00:33.273Z,20.74
2022-09-15T11:03:39.464Z,20.53
2022-09-15T11:06:30.975Z,20.29
2022-09-15T11:09:20.784Z,20.13
2022-09-15T11:12:20.208Z,20.01
2022-09-15T11:15:24.718Z,19.95
2022-09-15T11:18:15.540Z,19.99
2022-09-15T11:21:03.763Z,20.06
2022-09-15T11:23:54.671Z,20.11
2022-09-15T11:26:44.349Z,20.21
2022-09-15T11:29:31.350Z,20.30
2022-09-15T11:32:18.913Z,20.31
2022-09-15T11:35:26.899Z,20.23
2022-09-15T11:38:40.949Z,20.11
2022-09-15T11:41:34.622Z,19.93
2022-09-15T11:44:29.424Z,19.72
2022-09-15T11:47:24.831Z,19.50
2022-09-15T11:50:28.744Z,19.31
2022-09-15T11:53:35.729Z,19.16
2022-09-15T11:56:36.807Z,19.05
2022-09-15T11:59:42.448Z,19.00
2022-09-15T12:02:40.761Z,19.00
2022-09-15T12:05:47.203Z,19.02
2022-09-15T12:08:41.687Z,19.10
2022-09-15T12:11:27.653Z,19.19
2022-09-15T12:14:35.589Z,19.29
2022-09-15T12:17:26.903Z,19.36
2022-09-15T12:20:29.755Z,19.43
2022-09-15T12:23:23.067Z,19.48
2022-09-15T12:26:15.011Z,19.47
2022-09-15T12:28:58.931Z,19.47
2022-09-15T12:31:41.638Z,19.49
2022-09-15T12:34:38.995Z,19.48
2022-09-15T12:37:22.180Z,19.49
2022-09-15T12:40:08.159Z,19.59
2022-09-15T12:42:50.912Z,19.70
2022-09-15T12:45:36.392Z,19.78
2022-09-15T12:48:25.811Z,19.75
2022-09-15T12:51:13.272Z,19.68
2022-09-15T12:54:02.847Z,19.61
2022-09-15T12:56:52.261Z,19.44
2022-09-15T12:59:34.443Z,19.30
2022-09-15T13:02:43.831Z,19.18
2022-09-15T13:05:46.359Z,19.04
2022-09-15T13:08:30.917Z,18.88
2022-09-15T13:11:17.525Z,18.77
2022-09-15T13:14:08.942Z,18.69
2022-09-15T13:17:07.334Z,18.57
2022-09-15T13:19:53.112Z,18.46
2022-09-15T13:22:41.458Z,18.37
2022-09-15T13:25:28.475Z,18.33
2022-09-15T13:31:23.622Z,18.21
2022-09-15T13:41:25.207Z,18.33
2022-09-15T13:44:32.395Z,18.37
2022-09-15T13:47:25.963Z,18.37
2022-09-15T13:50:34.523Z,18.38
2022-09-15T13:53:54.881Z,18.36
2022-09-15T13:56:40.030Z,18.31
2022-09-15T13:59:27.535Z,18.25
2022-09-15T14:02:09.746Z,18.21
2022-09-15T14:04:52.295Z,18.18
2022-09-15T14:07:34.137Z,18.14
2022-09-15T14:10:24.483Z,18.10
2022-09-15T14:13:06.894Z,18.11
2022-09-15T14:16:11.778Z,18.15
2022-09-15T14:18:57.932Z,18.18
2022-09-15T14:21:51.306Z,18.19
2022-09-15T14:24:40.418Z,18.19
2022-09-15T14:27:26.412Z,18.18
2022-09-15T14:30:17.183Z,18.14
2022-09-15T14:33:02.316Z,18.15
2022-09-15T14:35:45.943Z,18.17
2022-09-15T14:38:27.777Z,18.20
2022-09-15T14:41:19.579Z,18.18
2022-09-15T14:44:02.115Z,18.12
2022-09-15T14:46:44.157Z,18.09
2022-09-15T14:49:25.991Z,18.11
2022-09-15T14:52:24.245Z,18.14
2022-09-15T14:55:12.246Z,18.16
2022-09-15T14:58:02.360Z,18.17
2022-09-15T15:00:56.075Z,18.16
2022-09-15T15:04:20.144Z,18.13
2022-09-15T15:07:09.709Z,18.13
2022-09-15T15:10:06.246Z,18.12
2022-09-15T15:12:59.061Z,18.12
2022-09-15T15:15:46.519Z,18.09
2022-09-15T15:18:42.231Z,18.02
2022-09-15T15:21:45.223Z,17.91
2022-09-15T15:24:27.042Z,17.80
2022-09-15T15:27:33.900Z,17.72
2022-09-15T15:30:26.673Z,17.66
2022-09-15T15:33:19.543Z,17.64
2022-09-15T15:36:07.835Z,17.62
2022-09-15T15:38:53.768Z,17.60
2022-09-15T15:41:41.023Z,17.59
2022-09-15T15:44:28.037Z,17.56
2022-09-15T15:47:12.597Z,17.55
2022-09-15T15:50:12.732Z,17.51
2022-09-15T15:52:55.808Z,17.45
2022-09-15T15:55:40.781Z,17.39
2022-09-15T15:58:22.832Z,17.34
2022-09-15T16:01:05.117Z,17.30
2022-09-15T16:03:47.031Z,17.26
2022-09-15T16:06:29.095Z,17.21
2022-09-15T16:09:13.720Z,17.17
2022-09-15T16:14:42.730Z,17.07
2022-09-15T16:17:24.629Z,17.04
2022-09-15T16:20:07.903Z,17.02
2022-09-15T16:22:49.864Z,16.99
2022-09-15T16:25:39.967Z,16.94
2022-09-15T16:28:22.026Z,16.89
2022-09-15T16:31:04.643Z,16.85
2022-09-15T16:33:46.485Z,16.81
2022-09-15T16:36:28.333Z,16.76
2022-09-15T16:39:10.143Z,16.70
2022-09-15T16:41:51.909Z,16.67
2022-09-15T16:44:33.753Z,16.63
2022-09-15T16:47:15.573Z,16.59
2022-09-15T16:49:57.451Z,16.52
2022-09-15T16:52:39.337Z,16.44
2022-09-15T16:55:42.992Z,16.38
2022-09-15T16:58:24.786Z,16.34
2022-09-15T17:01:08.222Z,16.30
2022-09-15T17:03:50.191Z,16.28
2022-09-15T17:06:32.143Z,16.24
2022-09-15T17:09:14.046Z,16.18
2022-09-15T17:11:56.477Z,16.14
2022-09-15T17:14:38.409Z,16.07
2022-09-15T17:17:24.967Z,16.02
2022-09-15T17:20:07.459Z,15.98
2022-09-15T17:22:50.393Z,15.93
2022-09-15T17:25:40.026Z,15.87
2022-09-15T17:28:26.792Z,15.83
2022-09-15T17:31:17.175Z,15.80
2022-09-15T17:33:59.177Z,15.76
2022-09-15T17:36:41.280Z,15.70
2022-09-15T17:39:23.268Z,15.66
2022-09-15T17:42:05.506Z,15.64
2022-09-15T17:44:47.419Z,15.62
2022-09-15T17:47:31.119Z,15.59
2022-09-15T17:50:13.521Z,15.57
2022-09-15T17:52:57.247Z,15.56
2022-09-15T17:55:39.999Z,15.54
2022-09-15T17:58:23.732Z,15.53
2022-09-15T18:01:06.736Z,15.53
2022-09-15T18:03:49.676Z,15.51
2022-09-15T18:06:32.086Z,15.51
2022-09-15T18:09:15.788Z,15.50
2022-09-15T18:11:57.982Z,15.49
2022-09-15T18:14:41.728Z,15.48
2022-09-15T18:17:27.631Z,15.45
2022-09-15T18:20:14.563Z,15.39
2022-09-15T18:22:57.158Z,15.32
2022-09-15T18:25:39.073Z,15.27
2022-09-15T18:28:21.007Z,15.20
2022-09-15T18:31:03.368Z,15.15
2022-09-15T18:33:45.649Z,15.09
2022-09-15T18:36:28.069Z,15.02
2022-09-15T18:39:12.333Z,14.94
2022-09-15T18:41:54.495Z,14.88
2022-09-15T18:44:36.365Z,14.82
2022-09-15T18:47:18.131Z,14.76
2022-09-15T18:50:01.137Z,14.70
2022-09-15T18:52:43.451Z,14.66
2022-09-15T18:55:25.840Z,14.64
2022-09-15T18:58:08.021Z,14.63
2022-09-15T19:01:05.499Z,14.61
2022-09-15T19:03:57.191Z,14.59
2022-09-15T19:06:39.320Z,14.59
2022-09-15T19:09:22.239Z,14.57
2022-09-15T19:12:06.052Z,14.57
2022-09-15T19:14:48.679Z,14.56
2022-09-15T19:17:30.524Z,14.56
2022-09-15T19:20:15.582Z,14.56
2022-09-15T19:22:58.605Z,14.57
2022-09-15T19:25:44.186Z,14.57
2022-09-15T19:28:27.161Z,14.58
2022-09-15T19:31:12.711Z,14.58
2022-09-15T19:33:54.784Z,14.58
2022-09-15T19:36:36.937Z,14.59
2022-09-15T19:39:23.002Z,14.61
2022-09-15T19:42:06.007Z,14.62
2022-09-15T19:44:49.547Z,14.63
2022-09-15T19:47:31.432Z,14.63
2022-09-15T19:50:13.304Z,14.62
2022-09-15T19:52:59.480Z,14.57
2022-09-15T19:55:41.713Z,14.50
2022-09-15T19:58:23.817Z,14.42
2022-09-15T20:01:05.684Z,14.33
2022-09-15T20:03:50.087Z,14.26
2022-09-15T20:06:52.473Z,14.20
2022-09-15T20:09:38.097Z,14.14
2022-09-15T20:15:04.863Z,14.08
2022-09-15T20:17:47.489Z,14.07
2022-09-15T20:20:32.228Z,14.07
2022-09-15T20:23:16.091Z,14.08
2022-09-15T20:26:04.492Z,14.09
2022-09-15T20:28:48.692Z,14.10
2022-09-15T20:31:33.767Z,14.10
2022-09-15T20:34:16.675Z,14.10
2022-09-15T20:36:59.415Z,14.10
2022-09-15T20:39:41.949Z,14.11
2022-09-15T20:42:24.565Z,14.09
2022-09-15T20:45:07.542Z,14.07
2022-09-15T20:47:49.953Z,14.05
2022-09-15T20:50:32.561Z,14.05
2022-09-15T20:53:15.175Z,14.04
2022-09-15T20:55:57.342Z,14.01
2022-09-15T20:58:40.399Z,13.99
2022-09-15T21:01:25.432Z,13.95
2022-09-15T21:04:10.574Z,13.88
2022-09-15T21:06:54.246Z,13.82
2022-09-15T21:09:36.295Z,13.78
2022-09-15T21:12:18.408Z,13.74
2022-09-15T21:15:00.295Z,13.70
2022-09-15T21:17:42.066Z,13.65
2022-09-15T21:20:24.033Z,13.61
2022-09-15T21:23:05.795Z,13.57
2022-09-15T21:25:47.572Z,13.53
2022-09-15T21:28:30.579Z,13.50
2022-09-15T21:31:18.190Z,13.47
2022-09-15T21:34:00.449Z,13.44
2022-09-15T21:36:42.197Z,13.42
2022-09-15T21:39:24.329Z,13.41
2022-09-15T21:42:06.413Z,13.40
2022-09-15T21:44:48.807Z,13.39
2022-09-15T21:47:31.655Z,13.37
2022-09-15T21:50:13.396Z,13.34
2022-09-15T21:52:55.354Z,13.30
2022-09-15T21:55:37.842Z,13.25
2022-09-15T21:58:21.199Z,13.20
2022-09-15T22:01:19.053Z,13.16
2022-09-15T22:04:02.352Z,13.13
2022-09-15T22:06:44.992Z,13.08
2022-09-15T22:09:26.908Z,13.03
2022-09-15T22:12:08.789Z,12.97
2022-09-15T22:14:50.978Z,12.92
2022-09-15T22:17:32.741Z,12.87
2022-09-15T22:20:14.892Z,12.83
2022-09-15T22:23:00.271Z,12.79
2022-09-15T22:25:42.048Z,12.75
2022-09-15T22:28:23.833Z,12.72
2022-09-15T22:31:08.730Z,12.69
2022-09-15T22:33:51.386Z,12.67
2022-09-15T22:36:33.778Z,12.64
2022-09-15T22:39:15.570Z,12.60
2022-09-15T22:41:57.478Z,12.58
2022-09-15T22:44:39.622Z,12.55
2022-09-15T22:47:21.714Z,12.54
2022-09-15T22:50:03.645Z,12.53
2022-09-15T22:52:45.425Z,12.53
2022-09-15T22:55:27.605Z,12.53
2022-09-15T22:58:09.534Z,12.51
2022-09-15T23:00:51.452Z,12.51
2022-09-15T23:03:33.926Z,12.50
2022-09-15T23:06:15.723Z,12.50
2022-09-15T23:09:01.029Z,12.49
2022-09-15T23:11:42.888Z,12.49
2022-09-15T23:14:24.706Z,12.48
2022-09-15T23:17:06.448Z,12.46
2022-09-15T23:19:48.545Z,12.44
2022-09-15T23:22:30.283Z,12.42
2022-09-15T23:25:11.989Z,12.40
2022-09-15T23:27:53.739Z,12.37
2022-09-15T23:30:35.491Z,12.34
2022-09-15T23:33:17.258Z,12.30
2022-09-15T23:36:00.919Z,12.28
2022-09-15T23:38:44.278Z,12.25
2022-09-15T23:41:26.299Z,12.22
2022-09-15T23:44:08.424Z,12.20
2022-09-15T23:46:50.237Z,12.17
2022-09-15T23:49:32.017Z,12.15
2022-09-15T23:52:13.823Z,12.12
2022-09-15T23:54:56.069Z,12.10
2022-09-15T23:57:37.851Z,12.08
